Jackson, Missouri
Current Conditions -  °F | °C
As of 9:53 PM on Sunday 21 Dec 2014 (Local Time) from KCGI Reporting Station
Overcast Overcast  
Wind Chill: 36°   Ceiling: 8000
Heat Index: 40°   Visibility: 10mi
Dew Point: 34°   Wind: 6mph
Humidity: 79%   Direction: 110°ESE
Pressure: 29.98"   Gusts: NA
Location:  37.38°N, 89.67°W
Report Text: KCGI 220353Z AUTO 11005KT 10SM BKN080 OVC100 04/01 A2998 RMK AO2 SLP154 T00440011 TSNO
Loading
Personal Weather Stations






























Interactive Weather Map New forecast layout! Learn more

10-Day Weather Forecast

Advertisements
Track Severe Weather on mobile